createdAt,value
2023-03-22T00:00:41.406Z,100647.66
2023-03-22T00:03:22.002Z,100645.81
2023-03-22T00:05:51.459Z,100638.69
2023-03-22T00:08:21.961Z,100638.53
2023-03-22T00:10:51.508Z,100634.09
2023-03-22T00:13:20.782Z,100636.75
2023-03-22T00:15:50.098Z,100624.31
2023-03-22T00:18:20.283Z,100628.69
2023-03-22T00:20:50.494Z,100619.81
2023-03-22T00:23:21.232Z,100620.66
2023-03-22T00:25:51.177Z,100624.06
2023-03-22T00:28:20.358Z,100619.63
2023-03-22T00:30:54.681Z,100619.56
2023-03-22T00:33:23.984Z,100617.72
2023-03-22T00:35:55.519Z,100615.06
2023-03-22T00:38:41.264Z,100620.31
2023-03-22T00:41:13.772Z,100615.81
2023-03-22T00:43:43.158Z,100603.38
2023-03-22T00:46:12.924Z,100609.59
2023-03-22T00:48:42.211Z,100598.06
2023-03-22T00:51:11.838Z,100598.06
2023-03-22T00:53:43.735Z,100596.28
2023-03-22T00:56:15.865Z,100594.44
2023-03-22T00:58:58.129Z,100591.72
2023-03-22T01:01:27.485Z,100586.44
2023-03-22T01:03:57.551Z,100592.59
2023-03-22T01:06:27.037Z,100588.91
2023-03-22T01:08:57.702Z,100579.88
2023-03-22T01:11:27.873Z,100574.44
2023-03-22T01:13:57.327Z,100565.47
2023-03-22T01:16:27.162Z,100562.66
2023-03-22T01:18:56.641Z,100567.97
2023-03-22T01:21:25.757Z,100574.19
2023-03-22T01:23:56.600Z,100563.47
2023-03-22T01:26:26.096Z,100561.63
2023-03-22T01:28:55.413Z,100557.09
2023-03-22T01:31:24.909Z,100555.19
2023-03-22T01:33:54.033Z,100548.88
2023-03-22T01:36:25.469Z,100548.00
2023-03-22T01:38:56.049Z,100545.25
2023-03-22T01:41:26.040Z,100548.78
2023-03-22T01:44:12.760Z,100545.94
2023-03-22T01:46:42.743Z,100539.56
2023-03-22T01:49:14.048Z,100528.97
2023-03-22T01:51:44.628Z,100534.31
2023-03-22T01:54:29.689Z,100528.06
2023-03-22T01:57:00.584Z,100528.88
2023-03-22T01:59:38.200Z,100532.25
2023-03-22T02:02:19.793Z,100526.00
2023-03-22T02:04:58.979Z,100520.69
2023-03-22T02:07:31.897Z,100514.31
2023-03-22T02:10:05.065Z,100513.34
2023-03-22T02:12:57.431Z,100508.88
2023-03-22T02:15:47.165Z,100506.00
2023-03-22T02:19:00.928Z,100503.44
2023-03-22T02:22:21.940Z,100501.56
2023-03-22T02:25:18.701Z,100498.88
2023-03-22T02:28:09.709Z,100488.25
2023-03-22T02:31:10.358Z,100494.22
2023-03-22T02:34:05.456Z,100490.69
2023-03-22T02:37:05.913Z,100498.53
2023-03-22T02:39:48.857Z,100492.28
2023-03-22T02:42:38.080Z,100489.63
2023-03-22T02:45:13.821Z,100484.13
2023-03-22T02:47:49.896Z,100482.09
2023-03-22T02:50:27.411Z,100481.38
2023-03-22T02:53:04.323Z,100483.72
2023-03-22T02:55:39.858Z,100482.03
2023-03-22T02:58:14.511Z,100484.69
2023-03-22T03:00:47.294Z,100480.34
2023-03-22T03:03:19.754Z,100479.19
2023-03-22T03:05:54.448Z,100477.50
2023-03-22T03:08:25.858Z,100475.81
2023-03-22T03:10:56.918Z,100462.38
2023-03-22T03:13:26.473Z,100465.78
2023-03-22T03:16:00.430Z,100460.28
2023-03-22T03:18:45.829Z,100471.84
2023-03-22T03:21:25.306Z,100467.41
2023-03-22T03:23:58.465Z,100465.78
2023-03-22T03:26:39.008Z,100459.53
2023-03-22T03:29:15.597Z,100462.06
2023-03-22T03:31:51.869Z,100459.34
2023-03-22T03:34:27.699Z,100461.97
2023-03-22T03:37:01.338Z,100461.16
2023-03-22T03:39:36.285Z,100464.63
2023-03-22T03:42:08.219Z,100465.22
2023-03-22T03:44:39.730Z,100460.75
2023-03-22T03:47:10.869Z,100469.84
2023-03-22T03:49:42.164Z,100464.56
2023-03-22T03:52:13.496Z,100459.06
2023-03-22T03:54:43.033Z,100461.84
2023-03-22T03:57:18.645Z,100453.97
2023-03-22T03:59:48.091Z,100453.03
2023-03-22T04:02:27.510Z,100450.25
2023-03-22T04:05:00.234Z,100447.59
2023-03-22T04:07:29.521Z,100451.06
2023-03-22T04:09:59.164Z,100450.25
2023-03-22T04:12:34.737Z,100447.84
2023-03-22T04:15:19.788Z,100446.88
2023-03-22T04:17:55.149Z,100440.81
2023-03-22T04:20:28.012Z,100435.41
2023-03-22T04:22:58.351Z,100438.94
2023-03-22T04:25:30.503Z,100431.03
2023-03-22T04:28:07.656Z,100432.88
2023-03-22T04:30:38.792Z,100444.28
2023-03-22T04:33:39.598Z,100442.53
2023-03-22T04:36:31.293Z,100439.94
2023-03-22T04:39:19.999Z,100436.47
2023-03-22T04:41:58.509Z,100431.94
2023-03-22T04:44:30.641Z,100427.53
2023-03-22T04:47:00.469Z,100428.34
2023-03-22T04:49:31.564Z,100423.06
2023-03-22T04:52:01.063Z,100427.66
2023-03-22T04:54:40.276Z,100417.91
2023-03-22T04:57:09.962Z,100411.75
2023-03-22T04:59:45.327Z,100406.41
2023-03-22T05:02:14.811Z,100411.66
2023-03-22T05:04:45.773Z,100409.91
2023-03-22T05:07:25.675Z,100404.56
2023-03-22T05:09:58.556Z,100393.72
2023-03-22T05:12:28.589Z,100400.97
2023-03-22T05:15:17.891Z,100394.72
2023-03-22T05:17:48.273Z,100390.44
2023-03-22T05:20:18.161Z,100392.03
2023-03-22T05:22:58.246Z,100381.38
2023-03-22T05:25:31.020Z,100385.88
2023-03-22T05:28:01.616Z,100384.09
2023-03-22T05:30:43.206Z,100377.91
2023-03-22T05:33:31.997Z,100384.09
2023-03-22T05:36:01.893Z,100385.00
2023-03-22T05:38:35.170Z,100383.03
2023-03-22T05:41:06.719Z,100388.47
2023-03-22T05:43:37.468Z,100390.31
2023-03-22T05:46:10.028Z,100389.34
2023-03-22T05:48:44.980Z,100390.31
2023-03-22T05:51:18.045Z,100389.44
2023-03-22T05:53:51.762Z,100396.41
2023-03-22T05:56:24.683Z,100400.88
2023-03-22T05:59:02.546Z,100399.75
2023-03-22T06:01:34.489Z,100398.00
2023-03-22T06:04:24.177Z,100398.94
2023-03-22T06:07:05.102Z,100397.81
2023-03-22T06:09:45.680Z,100391.44
2023-03-22T06:12:23.759Z,100396.66
2023-03-22T06:15:01.287Z,100380.59
2023-03-22T06:17:40.759Z,100390.34
2023-03-22T06:20:15.623Z,100400.03
2023-03-22T06:22:53.387Z,100406.84
2023-03-22T06:25:24.124Z,100408.69
2023-03-22T06:27:53.411Z,100412.19
2023-03-22T06:30:23.414Z,100408.44
2023-03-22T06:33:15.011Z,100408.34
2023-03-22T06:35:49.971Z,100414.31
2023-03-22T06:38:27.878Z,100415.22
2023-03-22T06:40:58.303Z,100414.94
2023-03-22T06:43:28.336Z,100410.69
2023-03-22T06:46:09.148Z,100409.94
2023-03-22T06:48:48.495Z,100409.50
2023-03-22T06:51:19.406Z,100415.59
2023-03-22T06:53:48.947Z,100409.59
2023-03-22T06:56:19.622Z,100407.47
2023-03-22T06:58:54.769Z,100404.72
2023-03-22T07:01:24.401Z,100411.06
2023-03-22T07:03:55.063Z,100403.13
2023-03-22T07:06:26.110Z,100415.41
2023-03-22T07:08:59.307Z,100402.00
2023-03-22T07:11:32.745Z,100409.59
2023-03-22T07:14:04.756Z,100404.09
2023-03-22T07:16:50.143Z,100404.81
2023-03-22T07:19:26.102Z,100408.88
2023-03-22T07:21:56.899Z,100401.84
2023-03-22T07:24:27.317Z,100396.50
2023-03-22T07:26:56.900Z,100399.97
2023-03-22T07:29:29.870Z,100388.16
2023-03-22T07:32:00.441Z,100394.97
2023-03-22T07:34:40.060Z,100401.81
2023-03-22T07:37:16.925Z,100399.88
2023-03-22T07:39:46.447Z,100398.63
2023-03-22T07:42:16.847Z,100391.28
2023-03-22T07:44:50.144Z,100396.88
2023-03-22T07:47:34.298Z,100389.66
2023-03-22T07:50:23.249Z,100389.44
2023-03-22T07:52:57.528Z,100390.13
2023-03-22T07:55:30.193Z,100381.81
2023-03-22T07:57:59.815Z,100377.06
2023-03-22T08:00:29.016Z,100390.44
2023-03-22T08:03:18.603Z,100376.56
2023-03-22T08:06:09.800Z,100384.09
2023-03-22T08:08:40.603Z,100375.41
2023-03-22T08:11:10.815Z,100377.72
2023-03-22T08:13:41.027Z,100379.81
2023-03-22T08:16:12.670Z,100379.44
2023-03-22T08:18:44.275Z,100378.19
2023-03-22T08:21:15.858Z,100377.84
2023-03-22T08:23:45.560Z,100380.13
2023-03-22T08:26:30.452Z,100369.03
2023-03-22T08:29:06.693Z,100366.91
2023-03-22T08:31:38.874Z,100368.47
2023-03-22T08:34:08.365Z,100374.31
2023-03-22T08:36:41.566Z,100374.78
2023-03-22T08:39:11.706Z,100370.19
2023-03-22T08:41:54.924Z,100365.41
2023-03-22T08:44:28.200Z,100378.66
2023-03-22T08:46:58.002Z,100382.97
2023-03-22T08:49:28.200Z,100377.47
2023-03-22T08:52:07.530Z,100367.28
2023-03-22T08:54:45.515Z,100370.84
2023-03-22T08:57:37.636Z,100365.16
2023-03-22T09:00:45.776Z,100368.88
2023-03-22T09:03:30.800Z,100365.41
2023-03-22T09:06:00.904Z,100370.53
2023-03-22T09:08:36.416Z,100364.97
2023-03-22T09:11:15.635Z,100364.50
2023-03-22T09:13:47.710Z,100348.50
2023-03-22T09:16:17.551Z,100343.84
2023-03-22T09:18:48.116Z,100347.06
2023-03-22T09:21:21.854Z,100336.88
2023-03-22T09:24:00.228Z,100335.63
2023-03-22T09:26:41.750Z,100340.91
2023-03-22T09:29:12.482Z,100338.13
2023-03-22T09:31:43.512Z,100339.44
2023-03-22T09:34:32.298Z,100335.38
2023-03-22T09:37:02.649Z,100330.66
2023-03-22T09:39:44.893Z,100340.09
2023-03-22T09:42:29.324Z,100334.38
2023-03-22T09:45:02.333Z,100339.75
2023-03-22T09:47:44.695Z,100339.50
2023-03-22T09:50:18.118Z,100343.75
2023-03-22T09:52:48.138Z,100333.53
2023-03-22T09:55:31.812Z,100336.84
2023-03-22T09:58:09.409Z,100332.19
2023-03-22T10:00:45.273Z,100323.78
2023-03-22T10:03:34.005Z,100327.03
2023-03-22T10:06:09.441Z,100324.81
2023-03-22T10:08:48.765Z,100319.16
2023-03-22T10:11:32.612Z,100321.56
2023-03-22T10:14:09.383Z,100324.88
2023-03-22T10:16:40.126Z,100315.56
2023-03-22T10:19:20.508Z,100313.28
2023-03-22T10:21:53.818Z,100315.66
2023-03-22T10:24:28.392Z,100309.72
2023-03-22T10:26:59.196Z,100306.31
2023-03-22T10:29:33.892Z,100300.56
2023-03-22T10:32:15.566Z,100305.72
2023-03-22T10:34:46.599Z,100304.25
2023-03-22T10:37:18.749Z,100306.16
2023-03-22T10:39:50.879Z,100296.78
2023-03-22T10:42:25.054Z,100294.66
2023-03-22T10:44:58.930Z,100295.38
2023-03-22T10:47:33.464Z,100297.75
2023-03-22T10:50:06.868Z,100302.19
2023-03-22T10:52:46.974Z,100297.00
2023-03-22T10:55:18.105Z,100284.88
2023-03-22T10:57:57.599Z,100287.66
2023-03-22T11:00:29.116Z,100284.31
2023-03-22T11:03:01.998Z,100285.34
2023-03-22T11:05:32.065Z,100288.50
2023-03-22T11:08:03.723Z,100280.25
2023-03-22T11:10:34.332Z,100277.94
2023-03-22T11:13:22.905Z,100286.19
2023-03-22T11:15:56.691Z,100275.97
2023-03-22T11:18:31.223Z,100273.69
2023-03-22T11:21:05.021Z,100279.63
2023-03-22T11:23:38.622Z,100288.38
2023-03-22T11:26:11.439Z,100299.13
2023-03-22T11:28:48.254Z,100287.72
2023-03-22T11:31:20.758Z,100293.00
2023-03-22T11:33:58.234Z,100285.13
2023-03-22T11:36:29.980Z,100295.91
2023-03-22T11:39:00.636Z,100287.53
2023-03-22T11:41:33.119Z,100276.94
2023-03-22T11:44:07.076Z,100282.34
2023-03-22T11:46:37.751Z,100278.66
2023-03-22T11:49:10.835Z,100288.38
2023-03-22T11:51:41.957Z,100273.09
2023-03-22T11:54:17.023Z,100275.66
2023-03-22T11:56:50.399Z,100268.34
2023-03-22T11:59:27.497Z,100269.03
2023-03-22T12:02:03.440Z,100267.97
2023-03-22T12:04:39.492Z,100258.06
2023-03-22T12:07:16.754Z,100257.84
2023-03-22T12:09:51.322Z,100249.78
2023-03-22T12:12:24.177Z,100238.03
2023-03-22T12:15:00.637Z,100247.84
2023-03-22T12:17:39.698Z,100237.66
2023-03-22T12:20:19.339Z,100233.22
2023-03-22T12:22:53.351Z,100239.47
2023-03-22T12:25:26.298Z,100236.66
2023-03-22T12:27:59.316Z,100225.78
2023-03-22T12:30:35.287Z,100221.84
2023-03-22T12:33:10.641Z,100217.22
2023-03-22T12:35:46.200Z,100226.03
2023-03-22T12:38:27.732Z,100235.66
2023-03-22T12:40:59.441Z,100227.38
2023-03-22T12:43:40.696Z,100232.84
2023-03-22T12:46:19.629Z,100226.56
2023-03-22T12:48:53.539Z,100224.75
2023-03-22T12:51:23.045Z,100230.06
2023-03-22T12:53:55.340Z,100227.38
2023-03-22T12:56:29.438Z,100218.19
2023-03-22T12:59:03.532Z,100208.28
2023-03-22T13:01:41.107Z,100213.91
2023-03-22T13:04:33.072Z,100206.56
2023-03-22T13:07:12.925Z,100203.22
2023-03-22T13:09:44.265Z,100199.44
2023-03-22T13:12:34.149Z,100201.28
2023-03-22T13:15:23.833Z,100209.28
2023-03-22T13:18:00.145Z,100205.81
2023-03-22T13:20:34.120Z,100195.25
2023-03-22T13:23:13.352Z,100199.09
2023-03-22T13:26:01.668Z,100196.72
2023-03-22T13:28:37.199Z,100183.44
2023-03-22T13:31:07.672Z,100180.97
2023-03-22T13:33:39.118Z,100182.34
2023-03-22T13:36:24.927Z,100184.19
2023-03-22T13:39:00.383Z,100177.09
2023-03-22T13:41:31.764Z,100182.66
2023-03-22T13:44:03.637Z,100175.22
2023-03-22T13:46:50.861Z,100173.59
2023-03-22T13:49:49.585Z,100168.66
2023-03-22T13:52:29.570Z,100168.66
2023-03-22T13:54:59.783Z,100153.72
2023-03-22T13:57:47.740Z,100156.09
2023-03-22T14:00:35.672Z,100156.63
2023-03-22T14:03:12.870Z,100161.59
2023-03-22T14:05:46.743Z,100163.88
2023-03-22T14:08:26.080Z,100170.56
2023-03-22T14:11:04.713Z,100160.47
2023-03-22T14:13:39.368Z,100155.88
2023-03-22T14:16:14.322Z,100146.91
2023-03-22T14:18:48.018Z,100150.84
2023-03-22T14:21:23.815Z,100156.47
